Airfield :
LOGIN :

Register | Disclaimer

   EN    FR    IT 

 










Legend :    VFR   Marginal VFR   IFR   Intensive IFR   Very Intensive IFR
Visi :
Ceiling :
>= 8 km
>= 3000ft
5 to 8 km
1000 to 3000 ft
1500m to 5 km
500 to 1000 ft
800 to 1500m
200 to 500 ft
< 800m
< 200 ft
Symbols :   Thunderstorms  Fog  Heavy snow  Heavy precipitations  Wind > 20 kt
SIGMETs :     Misc.  Thunderstorms  Icing  Turbulence  Mountain Waves  Volcanic Ashes






- Airport Elevation : 388 ft
- IATA code : QYR


LFQB - Troyes Barberey

CURRENT METAR :
  • 230430Z AUTO 17010KT 9999 -RA ///CB 14/13 Q1012

EXPIRED METARs :
  • 230400Z AUTO 17009KT 9999 -RA ///CB 14/13 Q1012
  • 230330Z AUTO 16006KT 9999 ///TCU 14/13 Q1012
  • 230300Z AUTO 17008KT 9999 -RA NSC 14/13 Q1012
  • 230230Z AUTO 17007KT 9999 ///TCU 14/12 Q1012
  • 230200Z AUTO 16006KT 3300 -RA BR FEW049/// OVC086/// ///TCU 14/13 Q1013

TAF N/A



MET'MAP, your aeronautical weather chart ! - Copyright ORBIFLY December 2007 - Disclaimer

ORBIFLY MET'MAP TEAM :

Programming & Development : Alexandra Zaïnal
Concept & original design : Baudouin d'Aumeries
Assistance for programming : Marc-Olivier Méhu
Technical & hardware support : Manuel Goepfert

Contact : metmap@orbifly.com




SOURCES & CREDITS :

   NOAA